sensor_id;sensor_type;location;lat;lon;timestamp;temperature;humidity
20885;DHT22;10602;48.000;9.654;2023-09-19T06:24:38;16.10;95.10
20885;DHT22;10602;48.000;9.654;2023-09-19T06:27:07;16.30;87.60
20885;DHT22;10602;48.000;9.654;2023-09-19T06:29:37;16.40;77.70
20885;DHT22;10602;48.000;9.654;2023-09-19T06:32:09;16.50;40.10
20885;DHT22;10602;48.000;9.654;2023-09-19T06:34:38;16.60;29.50
20885;DHT22;10602;48.000;9.654;2023-09-19T06:37:23;16.70;29.90
20885;DHT22;10602;48.000;9.654;2023-09-19T06:39:48;16.70;2.80
20885;DHT22;10602;48.000;9.654;2023-09-19T06:42:26;16.90;1.00
20885;DHT22;10602;48.000;9.654;2023-09-19T06:44:56;17.10;1.00
20885;DHT22;10602;48.000;9.654;2023-09-19T06:47:24;17.40;1.00
20885;DHT22;10602;48.000;9.654;2023-09-19T06:49:56;17.30;1.00
20885;DHT22;10602;48.000;9.654;2023-09-19T06:52:34;17.20;1.00
20885;DHT22;10602;48.000;9.654;2023-09-19T06:55:03;17.10;1.00
20885;DHT22;10602;48.000;9.654;2023-09-19T06:57:35;17.10;1.00
20885;DHT22;10602;48.000;9.654;2023-09-19T07:00:03;17.00;1.00
20885;DHT22;10602;48.000;9.654;2023-09-19T07:02:36;17.00;1.00
20885;DHT22;10602;48.000;9.654;2023-09-19T07:05:09;16.90;1.00
20885;DHT22;10602;48.000;9.654;2023-09-19T07:07:43;17.10;1.00
20885;DHT22;10602;48.000;9.654;2023-09-19T07:10:12;17.30;1.00
20885;DHT22;10602;48.000;9.654;2023-09-19T07:12:43;17.50;1.00
20885;DHT22;10602;48.000;9.654;2023-09-19T07:15:13;17.70;1.00
20885;DHT22;10602;48.000;9.654;2023-09-19T07:17:43;18.00;1.00
20885;DHT22;10602;48.000;9.654;2023-09-19T07:20:28;18.30;1.00
20885;DHT22;10602;48.000;9.654;2023-09-19T07:23:22;18.60;1.00
20885;DHT22;10602;48.000;9.654;2023-09-19T07:26:08;18.70;78.00
20885;DHT22;10602;48.000;9.654;2023-09-19T07:28:52;18.80;59.30
20885;DHT22;10602;48.000;9.654;2023-09-19T07:31:42;18.80;99.90
20885;DHT22;10602;48.000;9.654;2023-09-19T07:37:21;19.00;1.00
20885;DHT22;10602;48.000;9.654;2023-09-19T07:46:18;18.10;99.90
20885;DHT22;10602;48.000;9.654;2023-09-19T07:49:23;18.30;99.90
20885;DHT22;10602;48.000;9.654;2023-09-19T07:55:14;18.80;99.90
20885;DHT22;10602;48.000;9.654;2023-09-19T07:57:49;19.10;1.00
20885;DHT22;10602;48.000;9.654;2023-09-19T08:11:34;19.00;1.00
20885;DHT22;10602;48.000;9.654;2023-09-19T08:20:20;19.40;99.90
20885;DHT22;10602;48.000;9.654;2023-09-19T08:25:20;19.10;1.00
20885;DHT22;10602;48.000;9.654;2023-09-19T08:27:58;19.30;99.90
20885;DHT22;10602;48.000;9.654;2023-09-19T08:30:29;19.60;1.00
20885;DHT22;10602;48.000;9.654;2023-09-19T08:33:02;19.50;1.00
20885;DHT22;10602;48.000;9.654;2023-09-19T08:35:39;19.60;99.90
20885;DHT22;10602;48.000;9.654;2023-09-19T08:38:16;20.00;1.00
20885;DHT22;10602;48.000;9.654;2023-09-19T08:41:10;20.40;99.90
20885;DHT22;10602;48.000;9.654;2023-09-19T08:43:43;20.80;99.90
20885;DHT22;10602;48.000;9.654;2023-09-19T08:46:17;21.30;1.00
20885;DHT22;10602;48.000;9.654;2023-09-19T08:52:22;22.30;1.00
20885;DHT22;10602;48.000;9.654;2023-09-19T08:54:33;22.50;99.90
20885;DHT22;10602;48.000;9.654;2023-09-19T08:57:35;22.30;45.80
20885;DHT22;10602;48.000;9.654;2023-09-19T09:00:08;22.00;59.90
20885;DHT22;10602;48.000;9.654;2023-09-19T09:02:49;21.60;99.90
20885;DHT22;10602;48.000;9.654;2023-09-19T09:05:24;22.40;99.90
20885;DHT22;10602;48.000;9.654;2023-09-19T09:07:56;23.20;1.00
20885;DHT22;10602;48.000;9.654;2023-09-19T09:15:48;21.60;99.90
20885;DHT22;10602;48.000;9.654;2023-09-19T09:18:48;22.10;11.10
20885;DHT22;10602;48.000;9.654;2023-09-19T09:21:32;22.20;1.00
20885;DHT22;10602;48.000;9.654;2023-09-19T09:38:57;21.50;99.90
20885;DHT22;10602;48.000;9.654;2023-09-19T09:48:11;22.20;1.00
20885;DHT22;10602;48.000;9.654;2023-09-19T10:03:38;23.30;1.00
20885;DHT22;10602;48.000;9.654;2023-09-19T10:06:22;23.80;1.00
20885;DHT22;10602;48.000;9.654;2023-09-19T10:09:18;24.10;1.00
20885;DHT22;10602;48.000;9.654;2023-09-19T10:17:19;24.80;1.00
20885;DHT22;10602;48.000;9.654;2023-09-19T10:36:02;25.70;1.00
20885;DHT22;10602;48.000;9.654;2023-09-19T10:41:37;24.30;1.00
20885;DHT22;10602;48.000;9.654;2023-09-19T10:44:10;23.80;1.00
20885;DHT22;10602;48.000;9.654;2023-09-19T10:46:41;23.10;1.00
20885;DHT22;10602;48.000;9.654;2023-09-19T10:49:14;22.40;1.00
20885;DHT22;10602;48.000;9.654;2023-09-19T10:51:44;21.90;1.00
20885;DHT22;10602;48.000;9.654;2023-09-19T10:54:17;22.10;1.00
20885;DHT22;10602;48.000;9.654;2023-09-19T10:56:51;22.70;1.00
20885;DHT22;10602;48.000;9.654;2023-09-19T10:59:20;22.40;1.00
20885;DHT22;10602;48.000;9.654;2023-09-19T11:01:55;22.40;1.00
20885;DHT22;10602;48.000;9.654;2023-09-19T11:04:35;23.30;1.00
20885;DHT22;10602;48.000;9.654;2023-09-19T11:07:10;24.10;1.00
20885;DHT22;10602;48.000;9.654;2023-09-19T11:09:54;23.30;1.00
20885;DHT22;10602;48.000;9.654;2023-09-19T11:15:04;23.70;1.00
20885;DHT22;10602;48.000;9.654;2023-09-19T11:17:36;23.50;1.00
20885;DHT22;10602;48.000;9.654;2023-09-19T11:30:45;23.20;1.00
20885;DHT22;10602;48.000;9.654;2023-09-19T11:33:23;23.20;1.00
20885;DHT22;10602;48.000;9.654;2023-09-19T11:36:06;23.70;1.00
20885;DHT22;10602;48.000;9.654;2023-09-19T11:41:36;23.90;1.00
20885;DHT22;10602;48.000;9.654;2023-09-19T11:46:54;24.20;1.00
20885;DHT22;10602;48.000;9.654;2023-09-19T11:49:29;24.60;1.00
20885;DHT22;10602;48.000;9.654;2023-09-19T11:51:59;24.10;1.00
20885;DHT22;10602;48.000;9.654;2023-09-19T11:54:32;24.00;1.00
20885;DHT22;10602;48.000;9.654;2023-09-19T11:57:02;24.00;1.00
20885;DHT22;10602;48.000;9.654;2023-09-19T11:59:31;23.70;1.00
20885;DHT22;10602;48.000;9.654;2023-09-19T12:02:04;23.70;1.00
20885;DHT22;10602;48.000;9.654;2023-09-19T12:04:40;23.30;1.00
20885;DHT22;10602;48.000;9.654;2023-09-19T12:07:11;23.20;1.00
20885;DHT22;10602;48.000;9.654;2023-09-19T12:15:36;23.10;1.00
20885;DHT22;10602;48.000;9.654;2023-09-19T12:18:29;23.40;1.00
20885;DHT22;10602;48.000;9.654;2023-09-19T12:21:00;23.60;1.00
20885;DHT22;10602;48.000;9.654;2023-09-19T12:23:32;24.00;1.00
20885;DHT22;10602;48.000;9.654;2023-09-19T12:26:08;23.40;1.00
20885;DHT22;10602;48.000;9.654;2023-09-19T12:28:40;23.40;1.00
20885;DHT22;10602;48.000;9.654;2023-09-19T12:31:12;23.50;1.00
20885;DHT22;10602;48.000;9.654;2023-09-19T12:33:54;23.70;1.00
20885;DHT22;10602;48.000;9.654;2023-09-19T12:36:33;23.90;1.00
20885;DHT22;10602;48.000;9.654;2023-09-19T12:39:09;24.20;1.00
20885;DHT22;10602;48.000;9.654;2023-09-19T12:41:42;24.40;1.00
20885;DHT22;10602;48.000;9.654;2023-09-19T12:44:26;25.40;1.00
20885;DHT22;10602;48.000;9.654;2023-09-19T12:47:10;26.20;1.00
20885;DHT22;10602;48.000;9.654;2023-09-19T12:50:16;25.30;99.90
20885;DHT22;10602;48.000;9.654;2023-09-19T12:52:57;23.80;99.90
20885;DHT22;10602;48.000;9.654;2023-09-19T12:55:35;23.30;1.00
20885;DHT22;10602;48.000;9.654;2023-09-19T12:58:15;23.70;1.00
20885;DHT22;10602;48.000;9.654;2023-09-19T14:56:25;21.70;1.00
20885;DHT22;10602;48.000;9.654;2023-09-19T14:59:02;21.70;1.00
20885;DHT22;10602;48.000;9.654;2023-09-19T15:01:55;21.60;1.00
20885;DHT22;10602;48.000;9.654;2023-09-19T15:04:27;21.60;1.00
20885;DHT22;10602;48.000;9.654;2023-09-19T15:07:03;21.40;1.00
20885;DHT22;10602;48.000;9.654;2023-09-19T15:15:26;21.30;1.00
20885;DHT22;10602;48.000;9.654;2023-09-19T15:18:10;21.20;1.00
20885;DHT22;10602;48.000;9.654;2023-09-19T15:23:29;21.20;1.00
20885;DHT22;10602;48.000;9.654;2023-09-19T15:26:00;21.30;1.00
20885;DHT22;10602;48.000;9.654;2023-09-19T15:28:46;21.40;1.00
20885;DHT22;10602;48.000;9.654;2023-09-19T15:31:13;21.20;1.00
20885;DHT22;10602;48.000;9.654;2023-09-19T15:33:42;21.20;1.00
20885;DHT22;10602;48.000;9.654;2023-09-19T15:36:16;21.20;1.00
20885;DHT22;10602;48.000;9.654;2023-09-19T15:38:58;21.10;8.90
20885;DHT22;10602;48.000;9.654;2023-09-19T15:41:34;21.00;1.00
20885;DHT22;10602;48.000;9.654;2023-09-19T15:44:14;20.90;1.00
20885;DHT22;10602;48.000;9.654;2023-09-19T15:46:42;20.90;7.90
20885;DHT22;10602;48.000;9.654;2023-09-19T15:49:16;20.90;5.00
20885;DHT22;10602;48.000;9.654;2023-09-19T15:51:43;20.80;6.10
20885;DHT22;10602;48.000;9.654;2023-09-19T15:54:15;20.70;1.00
20885;DHT22;10602;48.000;9.654;2023-09-19T15:56:45;20.70;2.90
20885;DHT22;10602;48.000;9.654;2023-09-19T15:59:20;20.70;99.90
20885;DHT22;10602;48.000;9.654;2023-09-19T16:01:50;20.60;99.90
20885;DHT22;10602;48.000;9.654;2023-09-19T16:04:18;20.60;99.90
20885;DHT22;10602;48.000;9.654;2023-09-19T16:06:49;20.50;99.90
20885;DHT22;10602;48.000;9.654;2023-09-19T16:09:16;20.50;99.90
20885;DHT22;10602;48.000;9.654;2023-09-19T16:11:45;20.50;99.90
20885;DHT22;10602;48.000;9.654;2023-09-19T16:14:15;20.40;99.90
20885;DHT22;10602;48.000;9.654;2023-09-19T16:16:43;20.40;99.90
20885;DHT22;10602;48.000;9.654;2023-09-19T16:19:18;20.30;99.90
20885;DHT22;10602;48.000;9.654;2023-09-19T16:22:18;20.20;1.00
20885;DHT22;10602;48.000;9.654;2023-09-19T16:24:30;20.20;1.00
20885;DHT22;10602;48.000;9.654;2023-09-19T16:26:58;20.10;1.00
20885;DHT22;10602;48.000;9.654;2023-09-19T16:29:25;20.10;1.00
20885;DHT22;10602;48.000;9.654;2023-09-19T16:31:56;20.10;1.00
20885;DHT22;10602;48.000;9.654;2023-09-19T16:34:25;20.00;1.00
20885;DHT22;10602;48.000;9.654;2023-09-19T16:36:53;20.00;1.00
20885;DHT22;10602;48.000;9.654;2023-09-19T16:39:21;19.90;1.00
20885;DHT22;10602;48.000;9.654;2023-09-19T16:41:49;19.80;99.90
20885;DHT22;10602;48.000;9.654;2023-09-19T16:47:24;19.70;99.90
20885;DHT22;10602;48.000;9.654;2023-09-19T16:49:51;19.60;52.30
20885;DHT22;10602;48.000;9.654;2023-09-19T16:52:22;19.50;99.90
20885;DHT22;10602;48.000;9.654;2023-09-19T16:54:49;19.40;99.90
20885;DHT22;10602;48.000;9.654;2023-09-19T16:57:18;19.40;99.90
20885;DHT22;10602;48.000;9.654;2023-09-19T16:59:57;19.30;1.00
20885;DHT22;10602;48.000;9.654;2023-09-19T17:02:22;19.30;1.00
20885;DHT22;10602;48.000;9.654;2023-09-19T17:04:58;19.20;1.00
20885;DHT22;10602;48.000;9.654;2023-09-19T17:07:26;19.10;1.00
20885;DHT22;10602;48.000;9.654;2023-09-19T17:10:06;19.00;99.90
20885;DHT22;10602;48.000;9.654;2023-09-19T17:12:38;18.90;99.90
20885;DHT22;10602;48.000;9.654;2023-09-19T17:15:07;18.80;1.00
20885;DHT22;10602;48.000;9.654;2023-09-19T17:17:34;18.70;99.90
20885;DHT22;10602;48.000;9.654;2023-09-19T17:20:02;18.60;99.90
20885;DHT22;10602;48.000;9.654;2023-09-19T17:22:30;18.50;1.00
20885;DHT22;10602;48.000;9.654;2023-09-19T17:24:57;18.40;1.00
20885;DHT22;10602;48.000;9.654;2023-09-19T17:27:25;18.30;11.60
20885;DHT22;10602;48.000;9.654;2023-09-19T17:29:54;18.20;1.00
20885;DHT22;10602;48.000;9.654;2023-09-19T17:32:22;18.20;1.00
20885;DHT22;10602;48.000;9.654;2023-09-19T17:34:54;18.10;1.00
20885;DHT22;10602;48.000;9.654;2023-09-19T17:37:28;18.00;99.90
20885;DHT22;10602;48.000;9.654;2023-09-19T17:39:56;18.00;1.00
20885;DHT22;10602;48.000;9.654;2023-09-19T17:42:26;17.90;99.90
20885;DHT22;10602;48.000;9.654;2023-09-19T17:44:54;17.90;1.00
20885;DHT22;10602;48.000;9.654;2023-09-19T17:47:21;17.80;1.00
20885;DHT22;10602;48.000;9.654;2023-09-19T17:49:57;17.70;99.90
20885;DHT22;10602;48.000;9.654;2023-09-19T17:52:29;17.70;99.90
20885;DHT22;10602;48.000;9.654;2023-09-19T17:55:02;17.60;99.90
20885;DHT22;10602;48.000;9.654;2023-09-19T17:57:31;17.60;99.90
20885;DHT22;10602;48.000;9.654;2023-09-19T18:00:03;17.50;1.00
20885;DHT22;10602;48.000;9.654;2023-09-19T18:02:37;17.50;1.00
20885;DHT22;10602;48.000;9.654;2023-09-19T18:05:10;17.40;1.00
20885;DHT22;10602;48.000;9.654;2023-09-19T18:07:42;17.30;1.00
20885;DHT22;10602;48.000;9.654;2023-09-19T18:10:12;17.30;1.00
20885;DHT22;10602;48.000;9.654;2023-09-19T18:12:46;17.20;1.00
20885;DHT22;10602;48.000;9.654;2023-09-19T18:15:16;17.10;1.00
20885;DHT22;10602;48.000;9.654;2023-09-19T18:17:44;17.10;1.00
20885;DHT22;10602;48.000;9.654;2023-09-19T18:20:15;17.00;1.00
20885;DHT22;10602;48.000;9.654;2023-09-19T18:22:46;17.00;1.00
20885;DHT22;10602;48.000;9.654;2023-09-19T18:25:17;17.00;1.00
20885;DHT22;10602;48.000;9.654;2023-09-19T18:27:51;17.00;1.00
20885;DHT22;10602;48.000;9.654;2023-09-19T18:30:23;17.00;1.00
20885;DHT22;10602;48.000;9.654;2023-09-19T18:32:53;16.90;1.00
20885;DHT22;10602;48.000;9.654;2023-09-19T18:35:23;16.90;1.00
20885;DHT22;10602;48.000;9.654;2023-09-19T18:37:56;16.90;1.00
20885;DHT22;10602;48.000;9.654;2023-09-19T18:40:26;16.90;1.00
20885;DHT22;10602;48.000;9.654;2023-09-19T18:43:01;16.90;1.00
20885;DHT22;10602;48.000;9.654;2023-09-19T18:45:28;16.90;1.00
20885;DHT22;10602;48.000;9.654;2023-09-19T18:48:07;16.90;1.00
20885;DHT22;10602;48.000;9.654;2023-09-19T18:50:37;16.80;1.00
20885;DHT22;10602;48.000;9.654;2023-09-19T18:53:08;16.60;1.00
20885;DHT22;10602;48.000;9.654;2023-09-19T18:55:35;16.50;1.00
20885;DHT22;10602;48.000;9.654;2023-09-19T18:58:03;16.30;1.00
20885;DHT22;10602;48.000;9.654;2023-09-19T19:00:32;16.20;14.50
20885;DHT22;10602;48.000;9.654;2023-09-19T19:03:03;16.10;23.20
20885;DHT22;10602;48.000;9.654;2023-09-19T19:05:35;16.00;30.00
20885;DHT22;10602;48.000;9.654;2023-09-19T19:08:07;15.80;44.50
20885;DHT22;10602;48.000;9.654;2023-09-19T19:10:39;15.80;53.20
20885;DHT22;10602;48.000;9.654;2023-09-19T19:13:06;15.70;58.40
20885;DHT22;10602;48.000;9.654;2023-09-19T19:15:36;15.70;70.30
20885;DHT22;10602;48.000;9.654;2023-09-19T19:18:09;15.60;99.90
20885;DHT22;10602;48.000;9.654;2023-09-19T19:20:37;15.60;83.10
20885;DHT22;10602;48.000;9.654;2023-09-19T19:25:46;15.60;97.70
20885;DHT22;10602;48.000;9.654;2023-09-19T19:28:21;15.50;90.50
20885;DHT22;10602;48.000;9.654;2023-09-19T19:30:54;15.40;93.40
20885;DHT22;10602;48.000;9.654;2023-09-19T19:33:25;15.40;97.00
20885;DHT22;10602;48.000;9.654;2023-09-19T19:36:02;15.30;99.90
20885;DHT22;10602;48.000;9.654;2023-09-19T19:38:39;15.30;99.90
20885;DHT22;10602;48.000;9.654;2023-09-19T19:40:58;15.30;99.90
20885;DHT22;10602;48.000;9.654;2023-09-19T19:43:30;15.20;99.90
20885;DHT22;10602;48.000;9.654;2023-09-19T19:46:02;15.30;99.90
20885;DHT22;10602;48.000;9.654;2023-09-19T19:48:32;15.20;99.90
20885;DHT22;10602;48.000;9.654;2023-09-19T19:51:04;15.20;99.90
20885;DHT22;10602;48.000;9.654;2023-09-19T19:53:36;15.20;99.90
20885;DHT22;10602;48.000;9.654;2023-09-19T19:56:04;15.10;99.90
20885;DHT22;10602;48.000;9.654;2023-09-19T19:58:34;15.10;99.90
20885;DHT22;10602;48.000;9.654;2023-09-19T20:01:04;15.00;99.90
20885;DHT22;10602;48.000;9.654;2023-09-19T20:03:38;14.90;99.90
20885;DHT22;10602;48.000;9.654;2023-09-19T20:06:07;14.90;99.90
20885;DHT22;10602;48.000;9.654;2023-09-19T20:08:39;14.90;99.90
20885;DHT22;10602;48.000;9.654;2023-09-19T20:11:09;14.80;99.90
20885;DHT22;10602;48.000;9.654;2023-09-19T20:13:40;14.90;99.90
20885;DHT22;10602;48.000;9.654;2023-09-19T20:16:07;14.90;99.90
20885;DHT22;10602;48.000;9.654;2023-09-19T20:18:39;14.90;99.90
20885;DHT22;10602;48.000;9.654;2023-09-19T20:21:11;14.90;99.90
20885;DHT22;10602;48.000;9.654;2023-09-19T20:23:47;14.90;99.90
20885;DHT22;10602;48.000;9.654;2023-09-19T20:26:16;15.00;99.90
20885;DHT22;10602;48.000;9.654;2023-09-19T20:28:47;14.90;99.90
20885;DHT22;10602;48.000;9.654;2023-09-19T20:31:15;14.90;99.90
20885;DHT22;10602;48.000;9.654;2023-09-19T20:33:46;14.90;99.90
20885;DHT22;10602;48.000;9.654;2023-09-19T20:36:15;15.00;99.90
20885;DHT22;10602;48.000;9.654;2023-09-19T20:38:43;14.90;99.90
20885;DHT22;10602;48.000;9.654;2023-09-19T20:41:18;14.90;99.90
20885;DHT22;10602;48.000;9.654;2023-09-19T20:43:50;14.90;99.90
20885;DHT22;10602;48.000;9.654;2023-09-19T20:46:21;14.90;99.90
20885;DHT22;10602;48.000;9.654;2023-09-19T20:48:52;14.90;99.90
20885;DHT22;10602;48.000;9.654;2023-09-19T20:51:28;14.90;99.90
20885;DHT22;10602;48.000;9.654;2023-09-19T20:53:57;14.80;99.90
20885;DHT22;10602;48.000;9.654;2023-09-19T20:56:27;14.80;99.90
20885;DHT22;10602;48.000;9.654;2023-09-19T20:59:01;14.80;99.90
20885;DHT22;10602;48.000;9.654;2023-09-19T21:01:32;14.80;99.90
20885;DHT22;10602;48.000;9.654;2023-09-19T21:04:06;14.80;99.90
20885;DHT22;10602;48.000;9.654;2023-09-19T21:06:36;14.80;99.90
20885;DHT22;10602;48.000;9.654;2023-09-19T21:09:07;14.80;99.90
20885;DHT22;10602;48.000;9.654;2023-09-19T21:11:37;14.80;99.90
20885;DHT22;10602;48.000;9.654;2023-09-19T21:17:09;14.80;99.90
20885;DHT22;10602;48.000;9.654;2023-09-19T21:19:43;14.80;99.90
20885;DHT22;10602;48.000;9.654;2023-09-19T21:22:25;14.80;99.90
20885;DHT22;10602;48.000;9.654;2023-09-19T21:24:56;14.90;99.90
20885;DHT22;10602;48.000;9.654;2023-09-19T21:27:29;15.00;99.90
20885;DHT22;10602;48.000;9.654;2023-09-19T21:30:06;15.00;99.90
20885;DHT22;10602;48.000;9.654;2023-09-19T21:32:35;15.10;99.90
20885;DHT22;10602;48.000;9.654;2023-09-19T21:35:05;15.20;99.90
20885;DHT22;10602;48.000;9.654;2023-09-19T21:37:34;15.40;99.90
20885;DHT22;10602;48.000;9.654;2023-09-19T21:40:08;15.40;99.90
20885;DHT22;10602;48.000;9.654;2023-09-19T21:42:35;15.40;99.90
20885;DHT22;10602;48.000;9.654;2023-09-19T21:45:07;15.30;99.90
20885;DHT22;10602;48.000;9.654;2023-09-19T21:47:37;15.30;99.90
20885;DHT22;10602;48.000;9.654;2023-09-19T21:50:08;15.20;99.90
20885;DHT22;10602;48.000;9.654;2023-09-19T21:52:40;15.10;99.90
20885;DHT22;10602;48.000;9.654;2023-09-19T21:55:14;15.00;99.90
20885;DHT22;10602;48.000;9.654;2023-09-19T21:57:46;15.00;99.90
20885;DHT22;10602;48.000;9.654;2023-09-19T22:00:15;14.90;99.90
20885;DHT22;10602;48.000;9.654;2023-09-19T22:02:47;14.90;99.90
20885;DHT22;10602;48.000;9.654;2023-09-19T22:05:22;14.80;99.90
20885;DHT22;10602;48.000;9.654;2023-09-19T22:07:51;14.80;99.90
20885;DHT22;10602;48.000;9.654;2023-09-19T22:10:18;14.70;99.90
20885;DHT22;10602;48.000;9.654;2023-09-19T22:12:49;14.70;99.90
20885;DHT22;10602;48.000;9.654;2023-09-19T22:15:19;14.60;99.90
20885;DHT22;10602;48.000;9.654;2023-09-19T22:17:48;14.50;99.90
20885;DHT22;10602;48.000;9.654;2023-09-19T22:20:18;14.40;99.90
20885;DHT22;10602;48.000;9.654;2023-09-19T22:22:49;14.30;99.90
20885;DHT22;10602;48.000;9.654;2023-09-19T22:25:18;14.20;99.90
20885;DHT22;10602;48.000;9.654;2023-09-19T22:27:48;14.10;99.90
20885;DHT22;10602;48.000;9.654;2023-09-19T22:30:17;14.00;99.90
20885;DHT22;10602;48.000;9.654;2023-09-19T22:32:47;14.00;99.90
20885;DHT22;10602;48.000;9.654;2023-09-19T22:35:20;14.00;99.90
20885;DHT22;10602;48.000;9.654;2023-09-19T22:37:49;13.90;99.90
20885;DHT22;10602;48.000;9.654;2023-09-19T22:40:16;13.90;99.90
20885;DHT22;10602;48.000;9.654;2023-09-19T22:42:46;13.80;99.90
20885;DHT22;10602;48.000;9.654;2023-09-19T22:45:14;13.80;99.90
20885;DHT22;10602;48.000;9.654;2023-09-19T22:47:42;13.80;99.90
20885;DHT22;10602;48.000;9.654;2023-09-19T22:50:11;13.80;99.90
20885;DHT22;10602;48.000;9.654;2023-09-19T22:52:39;13.80;99.90
20885;DHT22;10602;48.000;9.654;2023-09-19T22:55:10;13.80;99.90
20885;DHT22;10602;48.000;9.654;2023-09-19T22:57:38;13.70;99.90
20885;DHT22;10602;48.000;9.654;2023-09-19T23:00:18;13.70;99.90
20885;DHT22;10602;48.000;9.654;2023-09-19T23:02:47;13.60;99.90
20885;DHT22;10602;48.000;9.654;2023-09-19T23:05:22;13.60;99.90
20885;DHT22;10602;48.000;9.654;2023-09-19T23:08:00;13.50;99.90
20885;DHT22;10602;48.000;9.654;2023-09-19T23:10:30;13.40;99.90
20885;DHT22;10602;48.000;9.654;2023-09-19T23:13:09;13.40;99.90
20885;DHT22;10602;48.000;9.654;2023-09-19T23:15:40;13.30;99.90
20885;DHT22;10602;48.000;9.654;2023-09-19T23:18:15;13.20;99.90
20885;DHT22;10602;48.000;9.654;2023-09-19T23:20:50;13.20;99.90
20885;DHT22;10602;48.000;9.654;2023-09-19T23:23:33;13.20;99.90
20885;DHT22;10602;48.000;9.654;2023-09-19T23:26:05;13.10;99.90
20885;DHT22;10602;48.000;9.654;2023-09-19T23:28:43;13.00;99.90
20885;DHT22;10602;48.000;9.654;2023-09-19T23:31:16;12.90;99.90
20885;DHT22;10602;48.000;9.654;2023-09-19T23:34:07;12.90;99.90
20885;DHT22;10602;48.000;9.654;2023-09-19T23:36:27;12.80;99.90
20885;DHT22;10602;48.000;9.654;2023-09-19T23:38:52;12.80;99.90
20885;DHT22;10602;48.000;9.654;2023-09-19T23:41:21;12.80;99.90
20885;DHT22;10602;48.000;9.654;2023-09-19T23:44:00;12.70;99.90
20885;DHT22;10602;48.000;9.654;2023-09-19T23:46:36;12.70;99.90
20885;DHT22;10602;48.000;9.654;2023-09-19T23:52:15;12.60;99.90
20885;DHT22;10602;48.000;9.654;2023-09-19T23:54:51;12.60;99.90
20885;DHT22;10602;48.000;9.654;2023-09-19T23:57:21;12.60;99.90
20885;DHT22;10602;48.000;9.654;2023-09-19T23:59:50;12.60;99.90
